sensor_id;sensor_type;location;lat;lon;timestamp;temperature;humidity
285;DHT22;127;48.770;9.212;2022-11-09T00:00:51;14.50;99.90
285;DHT22;127;48.770;9.212;2022-11-09T00:03:20;14.50;99.90
285;DHT22;127;48.770;9.212;2022-11-09T00:05:55;14.20;99.90
285;DHT22;127;48.770;9.212;2022-11-09T00:08:24;14.10;99.90
285;DHT22;127;48.770;9.212;2022-11-09T00:10:53;14.10;99.90
285;DHT22;127;48.770;9.212;2022-11-09T00:13:24;14.10;99.90
285;DHT22;127;48.770;9.212;2022-11-09T00:15:57;14.10;99.90
285;DHT22;127;48.770;9.212;2022-11-09T00:18:26;14.10;99.90
285;DHT22;127;48.770;9.212;2022-11-09T00:20:55;13.90;99.90
285;DHT22;127;48.770;9.212;2022-11-09T00:23:24;13.70;99.90
285;DHT22;127;48.770;9.212;2022-11-09T00:25:53;13.70;99.90
285;DHT22;127;48.770;9.212;2022-11-09T00:28:24;13.60;99.90
285;DHT22;127;48.770;9.212;2022-11-09T00:30:57;13.60;99.90
285;DHT22;127;48.770;9.212;2022-11-09T00:33:26;13.50;99.90
285;DHT22;127;48.770;9.212;2022-11-09T00:35:55;13.40;99.90
285;DHT22;127;48.770;9.212;2022-11-09T00:38:24;13.30;99.90
285;DHT22;127;48.770;9.212;2022-11-09T00:40:52;13.20;99.90
285;DHT22;127;48.770;9.212;2022-11-09T00:43:23;13.20;99.90
285;DHT22;127;48.770;9.212;2022-11-09T00:45:52;13.20;99.90
285;DHT22;127;48.770;9.212;2022-11-09T00:48:21;13.10;99.90
285;DHT22;127;48.770;9.212;2022-11-09T00:50:50;13.20;99.90
285;DHT22;127;48.770;9.212;2022-11-09T00:53:20;13.20;99.90
285;DHT22;127;48.770;9.212;2022-11-09T00:55:56;13.30;99.90
285;DHT22;127;48.770;9.212;2022-11-09T00:58:29;13.30;99.90
285;DHT22;127;48.770;9.212;2022-11-09T01:00:59;13.40;99.90
285;DHT22;127;48.770;9.212;2022-11-09T01:03:32;13.50;99.90
285;DHT22;127;48.770;9.212;2022-11-09T01:06:01;13.40;99.90
285;DHT22;127;48.770;9.212;2022-11-09T01:08:30;13.40;99.90
285;DHT22;127;48.770;9.212;2022-11-09T01:11:04;13.50;99.90
285;DHT22;127;48.770;9.212;2022-11-09T01:13:36;13.50;99.90
285;DHT22;127;48.770;9.212;2022-11-09T01:16:07;13.60;99.90
285;DHT22;127;48.770;9.212;2022-11-09T01:18:36;13.60;99.90
285;DHT22;127;48.770;9.212;2022-11-09T01:21:08;13.60;99.90
285;DHT22;127;48.770;9.212;2022-11-09T01:23:37;13.60;99.90
285;DHT22;127;48.770;9.212;2022-11-09T01:26:11;13.60;99.90
285;DHT22;127;48.770;9.212;2022-11-09T01:28:43;13.50;99.90
285;DHT22;127;48.770;9.212;2022-11-09T01:31:13;13.50;99.90
285;DHT22;127;48.770;9.212;2022-11-09T01:33:42;13.50;99.90
285;DHT22;127;48.770;9.212;2022-11-09T01:36:13;13.40;99.90
285;DHT22;127;48.770;9.212;2022-11-09T01:38:43;13.40;99.90
285;DHT22;127;48.770;9.212;2022-11-09T01:41:13;13.40;99.90
285;DHT22;127;48.770;9.212;2022-11-09T01:44:02;13.40;99.90
285;DHT22;127;48.770;9.212;2022-11-09T01:46:34;13.50;99.90
285;DHT22;127;48.770;9.212;2022-11-09T01:49:11;13.50;99.90
285;DHT22;127;48.770;9.212;2022-11-09T01:51:44;13.60;99.90
285;DHT22;127;48.770;9.212;2022-11-09T01:54:20;13.60;99.90
285;DHT22;127;48.770;9.212;2022-11-09T01:56:52;13.70;99.90
285;DHT22;127;48.770;9.212;2022-11-09T01:59:27;13.80;99.90
285;DHT22;127;48.770;9.212;2022-11-09T02:01:57;13.80;99.90
285;DHT22;127;48.770;9.212;2022-11-09T02:04:29;13.80;99.90
285;DHT22;127;48.770;9.212;2022-11-09T02:07:00;13.90;99.90
285;DHT22;127;48.770;9.212;2022-11-09T02:09:32;14.10;99.90
285;DHT22;127;48.770;9.212;2022-11-09T02:12:04;14.20;99.90
285;DHT22;127;48.770;9.212;2022-11-09T02:14:37;14.30;99.90
285;DHT22;127;48.770;9.212;2022-11-09T02:17:07;14.30;99.90
285;DHT22;127;48.770;9.212;2022-11-09T02:19:35;14.40;99.90
285;DHT22;127;48.770;9.212;2022-11-09T02:22:06;14.40;99.90
285;DHT22;127;48.770;9.212;2022-11-09T02:24:35;14.40;99.90
285;DHT22;127;48.770;9.212;2022-11-09T02:27:05;14.40;99.90
285;DHT22;127;48.770;9.212;2022-11-09T02:29:35;14.40;99.90
285;DHT22;127;48.770;9.212;2022-11-09T02:32:07;14.40;99.90
285;DHT22;127;48.770;9.212;2022-11-09T02:34:37;14.50;99.90
285;DHT22;127;48.770;9.212;2022-11-09T02:37:08;14.50;99.90
285;DHT22;127;48.770;9.212;2022-11-09T02:39:37;14.50;99.90
285;DHT22;127;48.770;9.212;2022-11-09T02:42:10;14.50;99.90
285;DHT22;127;48.770;9.212;2022-11-09T02:44:42;14.40;99.90
285;DHT22;127;48.770;9.212;2022-11-09T02:47:13;14.40;99.90
285;DHT22;127;48.770;9.212;2022-11-09T02:49:41;14.10;99.90
285;DHT22;127;48.770;9.212;2022-11-09T02:52:13;13.90;99.90
285;DHT22;127;48.770;9.212;2022-11-09T02:54:41;13.60;99.90
285;DHT22;127;48.770;9.212;2022-11-09T02:57:10;13.30;99.90
285;DHT22;127;48.770;9.212;2022-11-09T02:59:39;13.10;99.90
285;DHT22;127;48.770;9.212;2022-11-09T03:02:07;13.20;99.90
285;DHT22;127;48.770;9.212;2022-11-09T03:04:36;13.10;99.90
285;DHT22;127;48.770;9.212;2022-11-09T03:07:05;13.10;99.90
285;DHT22;127;48.770;9.212;2022-11-09T03:09:37;13.10;99.90
285;DHT22;127;48.770;9.212;2022-11-09T03:12:06;13.00;99.90
285;DHT22;127;48.770;9.212;2022-11-09T03:14:46;13.00;99.90
285;DHT22;127;48.770;9.212;2022-11-09T03:17:15;13.00;99.90
285;DHT22;127;48.770;9.212;2022-11-09T03:19:44;13.00;99.90
285;DHT22;127;48.770;9.212;2022-11-09T03:22:12;12.90;99.90
285;DHT22;127;48.770;9.212;2022-11-09T03:24:44;12.60;99.90
285;DHT22;127;48.770;9.212;2022-11-09T03:27:12;12.30;99.90
285;DHT22;127;48.770;9.212;2022-11-09T03:29:41;12.30;99.90
285;DHT22;127;48.770;9.212;2022-11-09T03:32:10;12.20;99.90
285;DHT22;127;48.770;9.212;2022-11-09T03:34:38;12.10;99.90
285;DHT22;127;48.770;9.212;2022-11-09T03:37:07;12.10;99.90
285;DHT22;127;48.770;9.212;2022-11-09T03:39:36;12.00;99.90
285;DHT22;127;48.770;9.212;2022-11-09T03:42:07;11.90;99.90
285;DHT22;127;48.770;9.212;2022-11-09T03:44:35;11.80;99.90
285;DHT22;127;48.770;9.212;2022-11-09T03:47:04;11.70;99.90
285;DHT22;127;48.770;9.212;2022-11-09T03:49:33;11.60;99.90
285;DHT22;127;48.770;9.212;2022-11-09T03:52:01;11.50;99.90
285;DHT22;127;48.770;9.212;2022-11-09T03:54:30;11.50;99.90
285;DHT22;127;48.770;9.212;2022-11-09T03:56:58;11.60;99.90
285;DHT22;127;48.770;9.212;2022-11-09T03:59:30;11.70;99.90
285;DHT22;127;48.770;9.212;2022-11-09T04:01:58;11.70;99.90
285;DHT22;127;48.770;9.212;2022-11-09T04:04:27;11.70;99.90
285;DHT22;127;48.770;9.212;2022-11-09T04:06:55;11.80;99.90
285;DHT22;127;48.770;9.212;2022-11-09T04:09:24;11.80;99.90
285;DHT22;127;48.770;9.212;2022-11-09T04:11:53;11.80;99.90
285;DHT22;127;48.770;9.212;2022-11-09T04:14:21;11.80;99.90
285;DHT22;127;48.770;9.212;2022-11-09T04:16:52;11.90;99.90
285;DHT22;127;48.770;9.212;2022-11-09T04:19:21;11.90;99.90
285;DHT22;127;48.770;9.212;2022-11-09T04:21:50;12.00;99.90
285;DHT22;127;48.770;9.212;2022-11-09T04:24:19;11.90;99.90
285;DHT22;127;48.770;9.212;2022-11-09T04:26:47;11.90;99.90
285;DHT22;127;48.770;9.212;2022-11-09T04:29:16;11.90;1.00
285;DHT22;127;48.770;9.212;2022-11-09T04:31:47;11.80;1.00
285;DHT22;127;48.770;9.212;2022-11-09T04:34:18;11.80;1.00
285;DHT22;127;48.770;9.212;2022-11-09T04:36:47;11.70;1.00
285;DHT22;127;48.770;9.212;2022-11-09T04:39:16;11.60;1.00
285;DHT22;127;48.770;9.212;2022-11-09T04:41:44;11.60;1.00
285;DHT22;127;48.770;9.212;2022-11-09T04:44:13;11.40;1.00
285;DHT22;127;48.770;9.212;2022-11-09T04:46:41;11.40;1.00
285;DHT22;127;48.770;9.212;2022-11-09T04:49:10;11.20;1.00
285;DHT22;127;48.770;9.212;2022-11-09T04:51:41;11.20;1.00
285;DHT22;127;48.770;9.212;2022-11-09T04:54:10;11.10;1.00
285;DHT22;127;48.770;9.212;2022-11-09T04:56:39;11.10;1.00
285;DHT22;127;48.770;9.212;2022-11-09T04:59:07;10.90;1.00
285;DHT22;127;48.770;9.212;2022-11-09T05:01:36;10.90;1.00
285;DHT22;127;48.770;9.212;2022-11-09T05:04:05;10.80;1.00
285;DHT22;127;48.770;9.212;2022-11-09T05:06:33;10.70;1.00
285;DHT22;127;48.770;9.212;2022-11-09T05:09:06;10.60;1.00
285;DHT22;127;48.770;9.212;2022-11-09T05:11:35;10.60;1.00
285;DHT22;127;48.770;9.212;2022-11-09T05:14:04;10.50;1.00
285;DHT22;127;48.770;9.212;2022-11-09T05:16:33;10.50;1.00
285;DHT22;127;48.770;9.212;2022-11-09T05:19:01;10.60;1.00
285;DHT22;127;48.770;9.212;2022-11-09T05:21:30;10.60;1.00
285;DHT22;127;48.770;9.212;2022-11-09T05:23:58;10.60;1.00
285;DHT22;127;48.770;9.212;2022-11-09T05:26:29;10.70;1.00
285;DHT22;127;48.770;9.212;2022-11-09T05:28:59;10.70;1.00
285;DHT22;127;48.770;9.212;2022-11-09T05:31:28;10.70;1.00
285;DHT22;127;48.770;9.212;2022-11-09T05:33:57;10.70;1.00
285;DHT22;127;48.770;9.212;2022-11-09T05:36:28;10.70;1.00
285;DHT22;127;48.770;9.212;2022-11-09T05:38:58;10.70;1.00
285;DHT22;127;48.770;9.212;2022-11-09T05:41:29;10.60;1.00
285;DHT22;127;48.770;9.212;2022-11-09T05:43:58;10.50;1.00
285;DHT22;127;48.770;9.212;2022-11-09T05:46:26;10.50;1.00
285;DHT22;127;48.770;9.212;2022-11-09T05:48:56;10.40;1.00
285;DHT22;127;48.770;9.212;2022-11-09T05:51:24;10.30;1.00
285;DHT22;127;48.770;9.212;2022-11-09T05:53:53;10.30;1.00
285;DHT22;127;48.770;9.212;2022-11-09T05:56:22;10.30;1.00
285;DHT22;127;48.770;9.212;2022-11-09T05:58:53;10.30;1.00
285;DHT22;127;48.770;9.212;2022-11-09T06:01:22;10.20;1.00
285;DHT22;127;48.770;9.212;2022-11-09T06:03:53;10.30;1.00
285;DHT22;127;48.770;9.212;2022-11-09T06:06:22;10.20;1.00
285;DHT22;127;48.770;9.212;2022-11-09T06:08:50;10.10;1.00
285;DHT22;127;48.770;9.212;2022-11-09T06:11:19;10.10;1.00
285;DHT22;127;48.770;9.212;2022-11-09T06:13:47;10.10;1.00
285;DHT22;127;48.770;9.212;2022-11-09T06:16:19;10.10;1.00
285;DHT22;127;48.770;9.212;2022-11-09T06:18:47;10.20;1.00
285;DHT22;127;48.770;9.212;2022-11-09T06:21:16;10.20;1.00
285;DHT22;127;48.770;9.212;2022-11-09T06:23:45;10.20;1.00
285;DHT22;127;48.770;9.212;2022-11-09T06:26:14;10.20;1.00
285;DHT22;127;48.770;9.212;2022-11-09T06:28:43;10.20;1.00
285;DHT22;127;48.770;9.212;2022-11-09T06:31:14;10.30;1.00
285;DHT22;127;48.770;9.212;2022-11-09T06:33:45;10.40;1.00
285;DHT22;127;48.770;9.212;2022-11-09T06:36:14;10.40;1.00
285;DHT22;127;48.770;9.212;2022-11-09T06:38:43;10.50;1.00
285;DHT22;127;48.770;9.212;2022-11-09T06:41:11;10.50;1.00
285;DHT22;127;48.770;9.212;2022-11-09T06:43:40;10.60;1.00
285;DHT22;127;48.770;9.212;2022-11-09T06:46:09;10.60;1.00
285;DHT22;127;48.770;9.212;2022-11-09T06:48:42;10.70;1.00
285;DHT22;127;48.770;9.212;2022-11-09T06:51:13;10.70;1.00
285;DHT22;127;48.770;9.212;2022-11-09T06:53:42;10.80;1.00
285;DHT22;127;48.770;9.212;2022-11-09T06:56:10;10.70;1.00
285;DHT22;127;48.770;9.212;2022-11-09T06:58:39;10.70;1.00
285;DHT22;127;48.770;9.212;2022-11-09T07:01:09;10.80;1.00
285;DHT22;127;48.770;9.212;2022-11-09T07:03:38;10.80;1.00
285;DHT22;127;48.770;9.212;2022-11-09T07:06:08;10.90;1.00
285;DHT22;127;48.770;9.212;2022-11-09T07:08:40;10.90;1.00
285;DHT22;127;48.770;9.212;2022-11-09T07:11:10;11.00;1.00
285;DHT22;127;48.770;9.212;2022-11-09T07:13:41;11.10;1.00
285;DHT22;127;48.770;9.212;2022-11-09T07:16:09;11.10;1.00
285;DHT22;127;48.770;9.212;2022-11-09T07:18:42;11.20;1.00
285;DHT22;127;48.770;9.212;2022-11-09T07:21:11;11.20;1.00
285;DHT22;127;48.770;9.212;2022-11-09T07:23:43;11.40;1.00
285;DHT22;127;48.770;9.212;2022-11-09T07:26:11;11.40;1.00
285;DHT22;127;48.770;9.212;2022-11-09T07:28:40;11.40;1.00
285;DHT22;127;48.770;9.212;2022-11-09T07:31:09;11.20;1.00
285;DHT22;127;48.770;9.212;2022-11-09T07:33:37;10.90;1.00
285;DHT22;127;48.770;9.212;2022-11-09T07:36:07;10.80;1.00
285;DHT22;127;48.770;9.212;2022-11-09T07:38:36;10.80;1.00
285;DHT22;127;48.770;9.212;2022-11-09T07:41:07;10.80;1.00
285;DHT22;127;48.770;9.212;2022-11-09T07:43:36;10.70;1.00
285;DHT22;127;48.770;9.212;2022-11-09T07:46:04;10.70;1.00
285;DHT22;127;48.770;9.212;2022-11-09T07:48:33;10.80;1.00
285;DHT22;127;48.770;9.212;2022-11-09T07:51:02;10.90;1.00
285;DHT22;127;48.770;9.212;2022-11-09T07:53:31;11.00;1.00
285;DHT22;127;48.770;9.212;2022-11-09T07:56:01;11.10;1.00
285;DHT22;127;48.770;9.212;2022-11-09T07:58:33;11.20;1.00
285;DHT22;127;48.770;9.212;2022-11-09T08:01:06;11.30;1.00
285;DHT22;127;48.770;9.212;2022-11-09T08:03:36;11.40;1.00
285;DHT22;127;48.770;9.212;2022-11-09T08:06:05;11.50;1.00
285;DHT22;127;48.770;9.212;2022-11-09T08:08:33;11.50;1.00
285;DHT22;127;48.770;9.212;2022-11-09T08:11:02;11.50;1.00
285;DHT22;127;48.770;9.212;2022-11-09T08:13:33;11.60;1.00
285;DHT22;127;48.770;9.212;2022-11-09T08:16:03;11.60;1.00
285;DHT22;127;48.770;9.212;2022-11-09T08:18:31;11.60;1.00
285;DHT22;127;48.770;9.212;2022-11-09T08:21:00;11.60;1.00
285;DHT22;127;48.770;9.212;2022-11-09T08:23:29;11.60;1.00
285;DHT22;127;48.770;9.212;2022-11-09T08:26:01;11.60;1.00
285;DHT22;127;48.770;9.212;2022-11-09T08:28:30;11.60;1.00
285;DHT22;127;48.770;9.212;2022-11-09T08:31:03;11.60;1.00
285;DHT22;127;48.770;9.212;2022-11-09T08:33:34;11.60;1.00
285;DHT22;127;48.770;9.212;2022-11-09T08:36:08;11.60;1.00
285;DHT22;127;48.770;9.212;2022-11-09T08:38:37;11.70;1.00
285;DHT22;127;48.770;9.212;2022-11-09T08:41:05;11.70;1.00
285;DHT22;127;48.770;9.212;2022-11-09T08:43:34;11.70;1.00
285;DHT22;127;48.770;9.212;2022-11-09T08:46:05;11.70;1.00
285;DHT22;127;48.770;9.212;2022-11-09T08:48:34;11.70;1.00
285;DHT22;127;48.770;9.212;2022-11-09T08:51:03;11.70;1.00
285;DHT22;127;48.770;9.212;2022-11-09T08:53:32;11.70;1.00
285;DHT22;127;48.770;9.212;2022-11-09T08:56:00;11.70;1.00
285;DHT22;127;48.770;9.212;2022-11-09T08:58:29;11.70;1.00
285;DHT22;127;48.770;9.212;2022-11-09T09:00:58;11.80;1.00
285;DHT22;127;48.770;9.212;2022-11-09T09:03:29;11.80;1.00
285;DHT22;127;48.770;9.212;2022-11-09T09:05:57;11.80;1.00
285;DHT22;127;48.770;9.212;2022-11-09T09:08:29;11.80;1.00
285;DHT22;127;48.770;9.212;2022-11-09T09:11:00;11.80;1.00
285;DHT22;127;48.770;9.212;2022-11-09T09:13:29;11.90;1.00
285;DHT22;127;48.770;9.212;2022-11-09T09:16:08;11.90;1.00
285;DHT22;127;48.770;9.212;2022-11-09T09:18:39;11.90;1.00
285;DHT22;127;48.770;9.212;2022-11-09T09:21:09;11.90;1.00
285;DHT22;127;48.770;9.212;2022-11-09T09:23:40;11.90;1.00
285;DHT22;127;48.770;9.212;2022-11-09T09:26:08;11.80;1.00
285;DHT22;127;48.770;9.212;2022-11-09T09:28:37;11.90;1.00
285;DHT22;127;48.770;9.212;2022-11-09T09:31:06;12.00;1.00
285;DHT22;127;48.770;9.212;2022-11-09T09:33:35;12.10;1.00
285;DHT22;127;48.770;9.212;2022-11-09T09:36:15;12.10;1.00
285;DHT22;127;48.770;9.212;2022-11-09T09:38:47;12.20;1.00
285;DHT22;127;48.770;9.212;2022-11-09T09:41:21;12.30;1.00
285;DHT22;127;48.770;9.212;2022-11-09T09:43:53;12.40;1.00
285;DHT22;127;48.770;9.212;2022-11-09T09:46:25;12.50;1.00
285;DHT22;127;48.770;9.212;2022-11-09T09:49:04;12.50;1.00
285;DHT22;127;48.770;9.212;2022-11-09T09:51:39;12.60;1.00
285;DHT22;127;48.770;9.212;2022-11-09T09:54:21;12.80;1.00
285;DHT22;127;48.770;9.212;2022-11-09T09:56:53;12.80;99.90
285;DHT22;127;48.770;9.212;2022-11-09T09:59:28;12.80;99.90
285;DHT22;127;48.770;9.212;2022-11-09T10:02:00;12.90;99.90
285;DHT22;127;48.770;9.212;2022-11-09T10:04:33;13.00;99.90
285;DHT22;127;48.770;9.212;2022-11-09T10:07:16;13.10;99.90
285;DHT22;127;48.770;9.212;2022-11-09T10:10:11;13.20;99.90
285;DHT22;127;48.770;9.212;2022-11-09T10:12:56;13.20;99.90
285;DHT22;127;48.770;9.212;2022-11-09T10:15:30;13.40;99.90
285;DHT22;127;48.770;9.212;2022-11-09T10:18:19;13.50;99.90
285;DHT22;127;48.770;9.212;2022-11-09T10:21:03;13.50;99.90
285;DHT22;127;48.770;9.212;2022-11-09T10:23:52;13.70;99.90
285;DHT22;127;48.770;9.212;2022-11-09T10:26:27;13.70;99.90
285;DHT22;127;48.770;9.212;2022-11-09T10:29:00;14.00;99.90
285;DHT22;127;48.770;9.212;2022-11-09T10:31:32;14.00;99.90
285;DHT22;127;48.770;9.212;2022-11-09T10:34:15;14.10;99.90
285;DHT22;127;48.770;9.212;2022-11-09T10:36:51;14.30;99.90
285;DHT22;127;48.770;9.212;2022-11-09T10:39:26;14.50;99.90
285;DHT22;127;48.770;9.212;2022-11-09T10:41:56;15.00;99.90
285;DHT22;127;48.770;9.212;2022-11-09T10:44:29;15.30;99.90
285;DHT22;127;48.770;9.212;2022-11-09T10:47:04;15.30;99.90
285;DHT22;127;48.770;9.212;2022-11-09T10:49:40;15.80;99.90
285;DHT22;127;48.770;9.212;2022-11-09T10:52:31;15.80;99.90
285;DHT22;127;48.770;9.212;2022-11-09T10:55:25;15.90;99.90
285;DHT22;127;48.770;9.212;2022-11-09T10:58:14;16.30;99.90
285;DHT22;127;48.770;9.212;2022-11-09T11:00:59;15.80;99.90
285;DHT22;127;48.770;9.212;2022-11-09T11:03:33;15.30;99.90
285;DHT22;127;48.770;9.212;2022-11-09T11:06:05;15.20;99.90
285;DHT22;127;48.770;9.212;2022-11-09T11:08:37;15.50;99.90
285;DHT22;127;48.770;9.212;2022-11-09T11:11:23;15.50;99.90
285;DHT22;127;48.770;9.212;2022-11-09T11:14:10;15.50;99.90
285;DHT22;127;48.770;9.212;2022-11-09T11:16:41;15.30;99.90
285;DHT22;127;48.770;9.212;2022-11-09T11:19:35;15.40;99.90
285;DHT22;127;48.770;9.212;2022-11-09T11:22:22;15.10;99.90
285;DHT22;127;48.770;9.212;2022-11-09T11:24:54;15.10;99.90
285;DHT22;127;48.770;9.212;2022-11-09T11:27:29;15.00;99.90
285;DHT22;127;48.770;9.212;2022-11-09T11:30:04;15.20;99.90
285;DHT22;127;48.770;9.212;2022-11-09T11:32:34;15.20;99.90
285;DHT22;127;48.770;9.212;2022-11-09T11:35:12;15.40;99.90
285;DHT22;127;48.770;9.212;2022-11-09T11:37:50;15.20;99.90
285;DHT22;127;48.770;9.212;2022-11-09T11:40:28;15.10;99.90
285;DHT22;127;48.770;9.212;2022-11-09T11:43:18;15.30;99.90
285;DHT22;127;48.770;9.212;2022-11-09T11:45:55;15.20;99.90
285;DHT22;127;48.770;9.212;2022-11-09T11:51:40;14.90;99.90
285;DHT22;127;48.770;9.212;2022-11-09T11:54:20;14.80;99.90
285;DHT22;127;48.770;9.212;2022-11-09T11:56:57;14.70;99.90
285;DHT22;127;48.770;9.212;2022-11-09T12:00:06;14.80;99.90
285;DHT22;127;48.770;9.212;2022-11-09T12:02:56;14.80;99.90
285;DHT22;127;48.770;9.212;2022-11-09T12:09:05;15.00;99.90
285;DHT22;127;48.770;9.212;2022-11-09T12:11:48;15.00;99.90
285;DHT22;127;48.770;9.212;2022-11-09T12:14:29;15.00;99.90
285;DHT22;127;48.770;9.212;2022-11-09T12:17:08;15.10;99.90
285;DHT22;127;48.770;9.212;2022-11-09T12:19:49;15.10;99.90
285;DHT22;127;48.770;9.212;2022-11-09T12:22:28;15.20;99.90
285;DHT22;127;48.770;9.212;2022-11-09T12:25:10;15.10;99.90
285;DHT22;127;48.770;9.212;2022-11-09T12:27:56;15.20;99.90
285;DHT22;127;48.770;9.212;2022-11-09T12:30:38;15.30;99.90
285;DHT22;127;48.770;9.212;2022-11-09T12:33:21;15.20;99.90
285;DHT22;127;48.770;9.212;2022-11-09T12:36:01;15.10;99.90
285;DHT22;127;48.770;9.212;2022-11-09T12:38:37;15.10;99.90
285;DHT22;127;48.770;9.212;2022-11-09T12:41:14;15.00;99.90
285;DHT22;127;48.770;9.212;2022-11-09T12:43:48;15.10;99.90
285;DHT22;127;48.770;9.212;2022-11-09T12:46:23;15.00;99.90
285;DHT22;127;48.770;9.212;2022-11-09T12:49:00;15.10;99.90
285;DHT22;127;48.770;9.212;2022-11-09T12:51:29;15.30;99.90
285;DHT22;127;48.770;9.212;2022-11-09T12:53:59;15.50;99.90
285;DHT22;127;48.770;9.212;2022-11-09T12:56:39;15.80;99.90
285;DHT22;127;48.770;9.212;2022-11-09T12:59:32;15.80;99.90
285;DHT22;127;48.770;9.212;2022-11-09T13:02:02;15.80;99.90
285;DHT22;127;48.770;9.212;2022-11-09T13:04:34;15.80;99.90
285;DHT22;127;48.770;9.212;2022-11-09T13:10:00;15.50;99.90
285;DHT22;127;48.770;9.212;2022-11-09T13:12:33;15.40;99.90
285;DHT22;127;48.770;9.212;2022-11-09T13:15:21;15.40;99.90
285;DHT22;127;48.770;9.212;2022-11-09T13:17:59;15.40;99.90
285;DHT22;127;48.770;9.212;2022-11-09T13:20:45;15.40;99.90
285;DHT22;127;48.770;9.212;2022-11-09T13:23:31;15.40;99.90
285;DHT22;127;48.770;9.212;2022-11-09T13:26:04;15.40;99.90
285;DHT22;127;48.770;9.212;2022-11-09T13:29:16;15.40;99.90
285;DHT22;127;48.770;9.212;2022-11-09T13:34:50;15.60;99.90
285;DHT22;127;48.770;9.212;2022-11-09T13:37:55;15.30;99.90
285;DHT22;127;48.770;9.212;2022-11-09T13:40:43;15.40;99.90
285;DHT22;127;48.770;9.212;2022-11-09T13:43:15;15.50;99.90
285;DHT22;127;48.770;9.212;2022-11-09T13:45:46;15.30;99.90
285;DHT22;127;48.770;9.212;2022-11-09T13:48:36;15.30;99.90
285;DHT22;127;48.770;9.212;2022-11-09T13:51:10;15.40;99.90
285;DHT22;127;48.770;9.212;2022-11-09T13:53:58;15.30;99.90
285;DHT22;127;48.770;9.212;2022-11-09T13:56:31;15.20;99.90
285;DHT22;127;48.770;9.212;2022-11-09T13:59:08;14.90;99.90
285;DHT22;127;48.770;9.212;2022-11-09T14:01:46;14.80;99.90
285;DHT22;127;48.770;9.212;2022-11-09T14:04:24;14.80;99.90
285;DHT22;127;48.770;9.212;2022-11-09T14:07:00;14.80;99.90
285;DHT22;127;48.770;9.212;2022-11-09T14:09:41;14.80;99.90
285;DHT22;127;48.770;9.212;2022-11-09T14:12:26;14.80;99.90
285;DHT22;127;48.770;9.212;2022-11-09T14:15:16;14.80;99.90
285;DHT22;127;48.770;9.212;2022-11-09T14:17:57;14.80;99.90
285;DHT22;127;48.770;9.212;2022-11-09T14:20:38;14.80;99.90
285;DHT22;127;48.770;9.212;2022-11-09T14:23:15;14.70;99.90
285;DHT22;127;48.770;9.212;2022-11-09T14:25:47;14.70;99.90
285;DHT22;127;48.770;9.212;2022-11-09T14:28:22;14.60;99.90
285;DHT22;127;48.770;9.212;2022-11-09T14:30:51;14.50;99.90
285;DHT22;127;48.770;9.212;2022-11-09T14:33:24;14.60;99.90
285;DHT22;127;48.770;9.212;2022-11-09T14:35:55;14.40;99.90
285;DHT22;127;48.770;9.212;2022-11-09T14:38:28;14.30;99.90
285;DHT22;127;48.770;9.212;2022-11-09T14:41:01;14.40;99.90
285;DHT22;127;48.770;9.212;2022-11-09T14:43:37;14.40;99.90
285;DHT22;127;48.770;9.212;2022-11-09T14:46:19;14.40;99.90
285;DHT22;127;48.770;9.212;2022-11-09T14:48:52;14.30;99.90
285;DHT22;127;48.770;9.212;2022-11-09T14:51:29;14.20;99.90
285;DHT22;127;48.770;9.212;2022-11-09T14:53:59;14.20;99.90
285;DHT22;127;48.770;9.212;2022-11-09T14:56:31;14.20;99.90
285;DHT22;127;48.770;9.212;2022-11-09T14:59:03;14.20;99.90
285;DHT22;127;48.770;9.212;2022-11-09T15:01:33;14.10;99.90
285;DHT22;127;48.770;9.212;2022-11-09T15:04:07;14.20;99.90
285;DHT22;127;48.770;9.212;2022-11-09T15:06:43;14.10;99.90
285;DHT22;127;48.770;9.212;2022-11-09T15:09:18;14.00;99.90
285;DHT22;127;48.770;9.212;2022-11-09T15:11:50;13.90;99.90
285;DHT22;127;48.770;9.212;2022-11-09T15:14:24;13.90;99.90
285;DHT22;127;48.770;9.212;2022-11-09T15:17:04;13.80;99.90
285;DHT22;127;48.770;9.212;2022-11-09T15:19:37;13.80;99.90
285;DHT22;127;48.770;9.212;2022-11-09T15:22:39;13.70;99.90
285;DHT22;127;48.770;9.212;2022-11-09T15:25:21;13.60;99.90
285;DHT22;127;48.770;9.212;2022-11-09T15:28:23;13.60;99.90
285;DHT22;127;48.770;9.212;2022-11-09T15:31:10;13.50;99.90
285;DHT22;127;48.770;9.212;2022-11-09T15:33:48;13.40;99.90
285;DHT22;127;48.770;9.212;2022-11-09T15:36:25;13.40;99.90
285;DHT22;127;48.770;9.212;2022-11-09T15:39:06;13.40;99.90
285;DHT22;127;48.770;9.212;2022-11-09T15:41:36;13.30;99.90
285;DHT22;127;48.770;9.212;2022-11-09T15:44:08;13.30;99.90
285;DHT22;127;48.770;9.212;2022-11-09T15:46:42;13.30;99.90
285;DHT22;127;48.770;9.212;2022-11-09T15:49:17;13.20;99.90
285;DHT22;127;48.770;9.212;2022-11-09T15:51:48;13.20;99.90
285;DHT22;127;48.770;9.212;2022-11-09T15:54:18;13.20;99.90
285;DHT22;127;48.770;9.212;2022-11-09T15:56:47;13.20;99.90
285;DHT22;127;48.770;9.212;2022-11-09T15:59:21;13.20;99.90
285;DHT22;127;48.770;9.212;2022-11-09T16:01:51;13.20;99.90
285;DHT22;127;48.770;9.212;2022-11-09T16:04:19;13.30;99.90
285;DHT22;127;48.770;9.212;2022-11-09T16:06:48;13.20;99.90
285;DHT22;127;48.770;9.212;2022-11-09T16:09:17;13.20;99.90
285;DHT22;127;48.770;9.212;2022-11-09T16:11:48;13.20;99.90
285;DHT22;127;48.770;9.212;2022-11-09T16:14:19;13.20;99.90
285;DHT22;127;48.770;9.212;2022-11-09T16:16:48;13.20;99.90
285;DHT22;127;48.770;9.212;2022-11-09T16:19:17;13.20;99.90
285;DHT22;127;48.770;9.212;2022-11-09T16:21:45;13.20;99.90
285;DHT22;127;48.770;9.212;2022-11-09T16:24:15;13.20;99.90
285;DHT22;127;48.770;9.212;2022-11-09T16:26:43;13.20;99.90
285;DHT22;127;48.770;9.212;2022-11-09T16:29:13;13.20;99.90
285;DHT22;127;48.770;9.212;2022-11-09T16:31:44;13.10;99.90
285;DHT22;127;48.770;9.212;2022-11-09T16:34:13;13.10;99.90
285;DHT22;127;48.770;9.212;2022-11-09T16:36:41;13.20;99.90
285;DHT22;127;48.770;9.212;2022-11-09T16:39:10;13.20;99.90
285;DHT22;127;48.770;9.212;2022-11-09T16:41:43;13.20;99.90
285;DHT22;127;48.770;9.212;2022-11-09T16:44:13;13.10;99.90
285;DHT22;127;48.770;9.212;2022-11-09T16:46:45;13.20;99.90
285;DHT22;127;48.770;9.212;2022-11-09T16:49:17;13.00;99.90
285;DHT22;127;48.770;9.212;2022-11-09T16:51:45;13.00;99.90
285;DHT22;127;48.770;9.212;2022-11-09T16:54:14;13.00;99.90
285;DHT22;127;48.770;9.212;2022-11-09T16:56:43;13.00;99.90
285;DHT22;127;48.770;9.212;2022-11-09T16:59:12;13.00;99.90
285;DHT22;127;48.770;9.212;2022-11-09T17:01:44;12.90;1.00
285;DHT22;127;48.770;9.212;2022-11-09T17:04:16;12.90;1.00
285;DHT22;127;48.770;9.212;2022-11-09T17:06:45;12.80;1.00
285;DHT22;127;48.770;9.212;2022-11-09T17:09:14;12.80;1.00
285;DHT22;127;48.770;9.212;2022-11-09T17:11:43;12.80;1.00
285;DHT22;127;48.770;9.212;2022-11-09T17:14:12;12.70;1.00
285;DHT22;127;48.770;9.212;2022-11-09T17:16:40;12.70;1.00
285;DHT22;127;48.770;9.212;2022-11-09T17:19:14;12.80;1.00
285;DHT22;127;48.770;9.212;2022-11-09T17:21:44;12.70;1.00
285;DHT22;127;48.770;9.212;2022-11-09T17:24:12;12.80;1.00
285;DHT22;127;48.770;9.212;2022-11-09T17:26:41;12.70;1.00
285;DHT22;127;48.770;9.212;2022-11-09T17:29:10;12.70;1.00
285;DHT22;127;48.770;9.212;2022-11-09T17:31:39;12.70;1.00